Time;durP1;ratioP1;P1;durP2;ratioP2;P2;SDS_P1;SDS_P2;PMS_P1;PMS_P2;Temp;Humidity;BMP_temperature;BMP_pressure;BME280_temperature;BME280_humidity;BME280_pressure;Samples;Min_cycle;Max_cycle;Signal;HPM_P1;HPM_P2
2023/10/05 00:00:37;;;;;;;15.43;5.70;;;12.60;99.90;;;;;;5093952;28;20829;-69
2023/10/05 00:03:05;;;;;;;16.50;6.00;;;12.60;99.90;;;;;;5103003;28;20506;-69
2023/10/05 00:05:35;;;;;;;20.07;6.27;;;12.70;99.90;;;;;;5099228;28;20946;-71
2023/10/05 00:08:04;;;;;;;18.73;6.80;;;12.60;99.90;;;;;;5092036;28;20526;-69
2023/10/05 00:10:33;;;;;;;20.20;6.13;;;12.60;99.90;;;;;;5093909;28;20516;-70
2023/10/05 00:13:07;;;;;;;13.60;5.70;;;12.50;99.90;;;;;;5097585;28;20474;-69
2023/10/05 00:15:36;;;;;;;16.63;6.60;;;12.30;99.90;;;;;;5093013;28;20435;-69
2023/10/05 00:18:03;;;;;;;14.97;5.43;;;12.20;99.90;;;;;;5095339;28;20482;-70
2023/10/05 00:20:38;;;;;;;14.30;6.03;;;12.00;99.90;;;;;;5088370;28;20459;-71
2023/10/05 00:23:08;;;;;;;12.87;6.83;;;11.90;99.90;;;;;;5103158;28;20980;-69
2023/10/05 00:25:35;;;;;;;13.30;6.03;;;11.80;99.90;;;;;;5102089;28;20504;-69
2023/10/05 00:28:05;;;;;;;15.07;6.83;;;11.70;99.90;;;;;;5103871;28;20500;-69
2023/10/05 00:30:31;;;;;;;15.60;6.23;;;11.60;99.90;;;;;;5091771;28;20450;-69
2023/10/05 00:32:59;;;;;;;21.20;6.80;;;11.50;99.90;;;;;;5098079;28;20470;-69
2023/10/05 00:35:28;;;;;;;14.03;5.80;;;11.50;99.90;;;;;;5095941;28;20462;-69
2023/10/05 00:37:57;;;;;;;18.20;5.87;;;11.50;99.90;;;;;;5093816;28;20924;-71
2023/10/05 00:40:33;;;;;;;15.57;6.30;;;11.40;99.90;;;;;;5096339;28;20561;-70
2023/10/05 00:43:05;;;;;;;23.87;6.40;;;11.40;99.90;;;;;;5097162;28;20549;-69
2023/10/05 00:45:33;;;;;;;19.10;6.50;;;11.40;99.90;;;;;;5094656;28;20477;-69
2023/10/05 00:48:09;;;;;;;24.67;6.83;;;11.30;99.90;;;;;;5104518;28;20866;-69
2023/10/05 00:50:39;;;;;;;19.77;6.67;;;11.30;99.90;;;;;;5098572;28;20445;-71
2023/10/05 00:53:08;;;;;;;17.17;6.90;;;11.30;99.90;;;;;;5103826;27;20470;-70
2023/10/05 00:55:38;;;;;;;23.00;6.07;;;11.30;99.90;;;;;;5103911;28;20465;-70
2023/10/05 00:58:12;;;;;;;17.57;6.43;;;11.30;99.90;;;;;;5103521;28;20478;-68
2023/10/05 01:00:50;;;;;;;13.60;5.83;;;11.30;99.90;;;;;;5107320;28;20461;-69
2023/10/05 01:03:22;;;;;;;16.37;6.23;;;11.20;99.90;;;;;;5099607;28;20482;-69
2023/10/05 01:06:01;;;;;;;15.43;6.20;;;11.20;99.90;;;;;;5103599;28;20453;-69
2023/10/05 01:08:31;;;;;;;16.30;6.90;;;11.10;99.90;;;;;;5095446;28;20446;-69
2023/10/05 01:11:01;;;;;;;16.77;6.80;;;11.20;99.90;;;;;;5099388;28;20458;-69
2023/10/05 01:13:32;;;;;;;20.03;6.50;;;11.10;99.90;;;;;;5095456;28;20810;-69
2023/10/05 01:15:59;;;;;;;11.67;5.67;;;11.10;99.90;;;;;;5105242;27;20450;-68
2023/10/05 01:18:26;;;;;;;22.10;6.83;;;11.10;99.90;;;;;;5103810;28;20508;-69
2023/10/05 01:20:55;;;;;;;20.03;6.73;;;11.20;99.90;;;;;;5102248;28;20465;-69
2023/10/05 01:23:38;;;;;;;20.03;6.03;;;11.20;99.90;;;;;;5106033;28;20470;-69
2023/10/05 01:26:05;;;;;;;16.23;5.70;;;11.20;99.90;;;;;;5103249;28;20814;-69
2023/10/05 01:28:36;;;;;;;16.43;6.27;;;11.20;99.90;;;;;;5106834;28;20532;-69
2023/10/05 01:31:04;;;;;;;20.93;6.40;;;11.20;99.90;;;;;;5102222;28;20464;-69
2023/10/05 01:33:31;;;;;;;15.00;6.23;;;11.10;99.90;;;;;;5106604;28;20470;-69
2023/10/05 01:35:58;;;;;;;17.13;6.37;;;11.10;99.90;;;;;;5103065;28;20925;-69
2023/10/05 01:38:24;;;;;;;20.40;6.37;;;11.10;99.90;;;;;;5103834;28;20488;-69
2023/10/05 01:40:56;;;;;;;18.77;5.70;;;11.00;99.90;;;;;;5106415;28;20852;-69
2023/10/05 01:43:23;;;;;;;19.73;6.20;;;11.00;99.90;;;;;;5098633;28;20516;-69
2023/10/05 01:45:50;;;;;;;11.60;5.43;;;10.90;99.90;;;;;;5103366;28;20457;-70
2023/10/05 01:48:18;;;;;;;21.23;5.43;;;11.00;99.90;;;;;;5105676;28;20447;-69
2023/10/05 01:50:45;;;;;;;17.13;6.63;;;10.90;99.90;;;;;;5107381;28;20475;-70
2023/10/05 01:53:15;;;;;;;17.60;5.90;;;10.90;99.90;;;;;;5104862;28;20463;-69
2023/10/05 01:55:44;;;;;;;16.17;5.87;;;10.90;99.90;;;;;;5098927;28;20446;-69
2023/10/05 01:58:23;;;;;;;15.13;6.20;;;10.90;99.90;;;;;;5100923;28;20486;-69
2023/10/05 02:00:50;;;;;;;19.50;6.80;;;10.90;99.90;;;;;;5106279;28;20457;-69
2023/10/05 02:03:23;;;;;;;14.87;7.43;;;10.90;99.90;;;;;;5103674;28;20462;-69
2023/10/05 02:05:50;;;;;;;20.80;6.30;;;10.90;99.90;;;;;;5098257;28;20453;-69
2023/10/05 02:08:18;;;;;;;17.47;6.10;;;11.00;99.90;;;;;;5105728;28;20457;-69
2023/10/05 02:10:47;;;;;;;19.33;6.53;;;11.00;99.90;;;;;;5101218;28;20447;-69
2023/10/05 02:13:16;;;;;;;19.20;7.03;;;11.00;99.90;;;;;;5104861;28;21015;-69
2023/10/05 02:15:45;;;;;;;15.93;6.10;;;11.00;99.90;;;;;;5107676;28;20503;-69
2023/10/05 02:18:22;;;;;;;19.23;6.50;;;11.00;99.90;;;;;;5097082;28;20502;-69
2023/10/05 02:20:51;;;;;;;13.57;6.20;;;11.00;99.90;;;;;;5107716;28;20446;-70
2023/10/05 02:23:28;;;;;;;15.60;6.57;;;11.00;99.90;;;;;;5090836;28;20831;-69
2023/10/05 02:25:57;;;;;;;17.63;6.00;;;11.00;99.90;;;;;;5091031;28;20484;-69
2023/10/05 02:28:26;;;;;;;14.73;6.33;;;11.00;99.90;;;;;;5091127;28;20472;-69
2023/10/05 02:30:54;;;;;;;18.90;5.70;;;11.00;99.90;;;;;;5104145;28;20446;-68
2023/10/05 02:33:26;;;;;;;13.20;6.37;;;11.10;99.90;;;;;;5110850;28;20463;-69
2023/10/05 02:36:08;;;;;;;21.73;6.30;;;11.10;99.90;;;;;;5111269;28;20957;-68
2023/10/05 02:38:36;;;;;;;22.50;5.97;;;11.10;99.90;;;;;;5100946;28;20488;-69
2023/10/05 02:41:04;;;;;;;20.70;6.43;;;11.10;99.90;;;;;;5110323;28;20445;-69
2023/10/05 02:43:38;;;;;;;23.80;6.33;;;11.20;99.90;;;;;;5089678;28;20552;-69
2023/10/05 02:46:10;;;;;;;13.03;6.03;;;11.20;99.90;;;;;;5094969;28;20495;-69
2023/10/05 02:48:38;;;;;;;12.30;5.43;;;11.30;99.90;;;;;;5094809;28;20438;-69
2023/10/05 02:51:06;;;;;;;21.50;6.73;;;11.30;99.90;;;;;;5094910;28;20446;-69
2023/10/05 02:53:40;;;;;;;16.03;6.27;;;11.30;99.90;;;;;;5094942;28;20553;-70
2023/10/05 02:56:20;;;;;;;18.87;6.50;;;11.30;99.90;;;;;;5095232;28;20461;-71
2023/10/05 02:58:50;;;;;;;14.60;6.00;;;11.30;99.90;;;;;;5109033;28;20494;-71
2023/10/05 03:01:17;;;;;;;16.93;5.40;;;11.40;99.90;;;;;;5108767;28;20537;-71
2023/10/05 03:03:44;;;;;;;20.33;6.57;;;11.30;99.90;;;;;;5106303;27;20492;-70
2023/10/05 03:06:11;;;;;;;13.30;5.70;;;11.30;99.90;;;;;;5094412;28;20469;-69
2023/10/05 03:08:39;;;;;;;13.10;6.40;;;11.30;99.90;;;;;;5106660;28;20445;-69
2023/10/05 03:11:08;;;;;;;12.93;6.17;;;11.30;99.90;;;;;;5103026;28;20450;-69
2023/10/05 03:13:36;;;;;;;13.53;5.70;;;11.30;99.90;;;;;;5097096;28;21014;-69
2023/10/05 03:16:06;;;;;;;12.03;5.90;;;11.30;99.90;;;;;;5103332;28;20492;-69
2023/10/05 03:18:37;;;;;;;12.03;6.27;;;11.20;99.90;;;;;;5097853;28;20488;-68
2023/10/05 03:21:10;;;;;;;22.23;6.53;;;11.10;99.90;;;;;;5108778;28;20449;-69
2023/10/05 03:23:37;;;;;;;18.30;7.23;;;11.10;99.90;;;;;;5110157;28;20457;-69
2023/10/05 03:26:04;;;;;;;18.73;6.70;;;11.00;99.90;;;;;;5108669;28;20480;-69
2023/10/05 03:28:34;;;;;;;14.10;6.27;;;11.00;99.90;;;;;;5102807;28;20445;-70
2023/10/05 03:31:06;;;;;;;12.50;6.17;;;11.00;99.90;;;;;;5102835;28;20516;-70
2023/10/05 03:33:34;;;;;;;14.53;6.27;;;10.90;99.90;;;;;;5099007;28;20461;-69
2023/10/05 03:36:06;;;;;;;13.40;6.43;;;10.90;99.90;;;;;;5111132;28;20931;-70
2023/10/05 03:38:33;;;;;;;13.10;6.23;;;10.80;99.90;;;;;;5099278;28;20502;-69
2023/10/05 03:41:03;;;;;;;16.40;7.50;;;10.80;99.90;;;;;;5109467;28;20445;-69
2023/10/05 03:43:31;;;;;;;17.27;7.20;;;10.70;99.90;;;;;;5096761;28;20461;-69
2023/10/05 03:45:58;;;;;;;19.93;6.10;;;10.80;99.90;;;;;;5111863;28;20446;-70
2023/10/05 03:48:26;;;;;;;16.67;6.90;;;10.70;99.90;;;;;;5111665;28;20441;-69
2023/10/05 03:50:54;;;;;;;12.73;6.10;;;10.70;99.90;;;;;;5105207;28;20456;-69
2023/10/05 03:53:21;;;;;;;15.03;7.10;;;10.60;99.90;;;;;;5104337;28;20472;-70
2023/10/05 03:55:48;;;;;;;13.53;6.50;;;10.60;99.90;;;;;;5107605;28;20513;-69
2023/10/05 03:58:16;;;;;;;12.57;6.77;;;10.50;99.90;;;;;;5110998;28;20572;-70
2023/10/05 04:00:42;;;;;;;13.47;6.43;;;10.50;99.90;;;;;;5105873;28;20966;-69
2023/10/05 04:03:09;;;;;;;13.83;7.03;;;10.50;99.90;;;;;;5109277;28;20504;-70
2023/10/05 04:05:40;;;;;;;17.23;7.27;;;10.50;99.90;;;;;;5093339;28;20447;-69
2023/10/05 04:08:12;;;;;;;15.60;6.63;;;10.40;99.90;;;;;;5101282;28;20461;-69
2023/10/05 04:10:46;;;;;;;14.23;5.97;;;10.50;99.90;;;;;;5106498;28;20545;-69
2023/10/05 04:13:14;;;;;;;14.40;6.60;;;10.50;99.90;;;;;;5109675;28;20478;-69
2023/10/05 04:15:40;;;;;;;21.00;7.20;;;10.50;99.90;;;;;;5112512;27;20453;-69
2023/10/05 04:18:11;;;;;;;15.77;6.60;;;10.40;99.90;;;;;;5108071;28;20451;-69
2023/10/05 04:20:38;;;;;;;18.67;7.03;;;10.40;99.90;;;;;;5112286;28;20437;-69
2023/10/05 04:23:04;;;;;;;14.03;6.77;;;10.30;99.90;;;;;;5111289;28;20626;-69
2023/10/05 04:25:32;;;;;;;13.30;6.60;;;10.30;99.90;;;;;;5112272;28;20870;-69
2023/10/05 04:28:00;;;;;;;13.43;6.43;;;10.30;99.90;;;;;;5109427;28;20540;-69
2023/10/05 04:30:27;;;;;;;16.63;6.47;;;10.30;99.90;;;;;;5099291;28;20538;-69
2023/10/05 04:32:54;;;;;;;16.47;6.93;;;10.30;99.90;;;;;;5107311;28;20480;-69
2023/10/05 04:35:26;;;;;;;12.47;6.93;;;10.30;99.90;;;;;;5111659;27;20450;-69
2023/10/05 04:37:54;;;;;;;14.17;7.00;;;10.30;99.90;;;;;;5111977;28;20476;-69
2023/10/05 04:40:24;;;;;;;15.70;6.80;;;10.30;99.90;;;;;;5111544;28;20494;-69
2023/10/05 04:42:52;;;;;;;14.60;6.70;;;10.30;99.90;;;;;;5105940;28;20553;-69
2023/10/05 04:45:20;;;;;;;17.07;6.80;;;10.20;99.90;;;;;;5111533;28;20490;-69
2023/10/05 04:47:48;;;;;;;11.57;6.70;;;10.20;99.90;;;;;;5111970;28;20878;-69
2023/10/05 04:50:17;;;;;;;14.83;7.70;;;10.20;99.90;;;;;;5111415;27;20978;-69
2023/10/05 04:52:45;;;;;;;17.17;6.90;;;10.20;99.90;;;;;;5104902;28;20538;-69
2023/10/05 04:55:18;;;;;;;14.57;7.20;;;10.20;99.90;;;;;;5111732;28;20821;-69
2023/10/05 04:57:55;;;;;;;24.87;7.73;;;10.20;99.90;;;;;;5112507;28;20450;-69
2023/10/05 05:03:47;;;;;;;14.53;6.53;;;10.20;99.90;;;;;;5107067;28;20613;-69
2023/10/05 05:06:10;;;;;;;19.27;8.10;;;10.30;99.90;;;;;;5091797;28;20956;-69
2023/10/05 05:08:39;;;;;;;14.23;7.20;;;10.30;99.90;;;;;;5092082;28;21012;-69
2023/10/05 05:11:08;;;;;;;16.60;7.10;;;10.20;99.90;;;;;;5100235;28;20478;-69
2023/10/05 05:13:38;;;;;;;16.70;7.17;;;10.20;99.90;;;;;;5087728;28;20858;-70
2023/10/05 05:16:07;;;;;;;21.10;7.40;;;10.10;99.90;;;;;;5086384;28;20894;-71
2023/10/05 05:18:38;;;;;;;12.67;6.30;;;10.10;99.90;;;;;;5089787;28;20812;-70
2023/10/05 05:21:07;;;;;;;15.70;6.77;;;10.10;99.90;;;;;;5112290;28;20537;-70
2023/10/05 05:23:35;;;;;;;14.60;7.00;;;10.10;99.90;;;;;;5112064;28;20462;-69
2023/10/05 05:26:03;;;;;;;16.10;7.40;;;10.10;99.90;;;;;;5104024;28;20477;-69
2023/10/05 05:28:30;;;;;;;14.80;6.87;;;10.10;99.90;;;;;;5091785;28;20451;-69
2023/10/05 05:31:04;;;;;;;18.70;7.53;;;10.10;99.90;;;;;;5091310;28;20861;-69
2023/10/05 05:33:32;;;;;;;15.47;7.07;;;10.20;99.90;;;;;;5083849;28;20466;-69
2023/10/05 05:36:05;;;;;;;17.70;7.40;;;10.20;99.90;;;;;;5092039;28;20863;-69
2023/10/05 05:38:33;;;;;;;22.73;6.80;;;10.20;99.90;;;;;;5090750;28;20451;-69
2023/10/05 05:41:01;;;;;;;19.10;7.60;;;10.20;99.90;;;;;;5091498;28;20481;-69
2023/10/05 05:43:29;;;;;;;13.70;8.00;;;10.20;99.90;;;;;;5090948;28;20467;-69
2023/10/05 05:45:55;;;;;;;16.63;7.63;;;10.20;99.90;;;;;;5091538;28;20442;-69
2023/10/05 05:48:22;;;;;;;16.00;6.77;;;10.20;99.90;;;;;;5091423;28;20923;-69
2023/10/05 05:50:53;;;;;;;14.57;7.90;;;10.20;99.90;;;;;;5091556;28;20472;-69
2023/10/05 05:53:19;;;;;;;17.00;7.60;;;10.20;99.90;;;;;;5091176;28;21026;-69
2023/10/05 05:55:52;;;;;;;21.93;6.67;;;10.20;99.90;;;;;;5091846;28;20496;-69
2023/10/05 05:58:19;;;;;;;16.37;7.13;;;10.20;99.90;;;;;;5092238;28;20474;-69
2023/10/05 06:00:46;;;;;;;18.73;7.33;;;10.20;99.90;;;;;;5092168;28;20573;-69
2023/10/05 06:03:13;;;;;;;16.00;7.20;;;10.20;99.90;;;;;;5091787;28;20485;-69
2023/10/05 06:05:40;;;;;;;20.63;7.20;;;10.20;99.90;;;;;;5090909;28;20643;-69
2023/10/05 06:08:10;;;;;;;15.33;7.30;;;10.30;99.90;;;;;;5089272;28;20442;-71
2023/10/05 06:10:37;;;;;;;13.00;7.10;;;10.30;99.90;;;;;;5089093;28;20451;-72
2023/10/05 06:13:06;;;;;;;19.20;8.20;;;10.30;99.90;;;;;;5091217;28;20470;-70
2023/10/05 06:15:34;;;;;;;19.60;7.57;;;10.20;99.90;;;;;;5092269;28;20439;-71
2023/10/05 06:18:01;;;;;;;18.07;7.50;;;10.30;99.90;;;;;;5092014;28;20565;-71
2023/10/05 06:20:28;;;;;;;14.37;7.43;;;10.40;99.90;;;;;;5091962;28;20512;-71
2023/10/05 06:22:54;;;;;;;24.80;8.23;;;10.40;99.90;;;;;;5091234;28;20470;-70
2023/10/05 06:25:22;;;;;;;36.50;8.37;;;10.50;99.90;;;;;;5092783;28;20459;-71
2023/10/05 06:27:49;;;;;;;18.97;8.37;;;10.60;99.90;;;;;;5092406;28;20488;-69
2023/10/05 06:30:16;;;;;;;24.00;7.60;;;10.70;99.90;;;;;;5090519;28;20496;-69
2023/10/05 06:32:43;;;;;;;16.30;7.43;;;10.80;99.90;;;;;;5089921;28;20970;-68
2023/10/05 06:35:12;;;;;;;13.20;7.80;;;11.00;99.90;;;;;;5090117;28;20547;-68
2023/10/05 06:37:39;;;;;;;16.07;7.50;;;11.10;99.90;;;;;;5090041;28;20941;-69
2023/10/05 06:40:09;;;;;;;19.93;8.47;;;11.20;99.90;;;;;;5091873;28;20490;-69
2023/10/05 06:42:39;;;;;;;23.10;9.83;;;11.30;99.90;;;;;;5091313;28;21058;-69
2023/10/05 06:45:08;;;;;;;16.43;8.00;;;11.40;99.90;;;;;;5090875;28;20823;-69
2023/10/05 06:47:36;;;;;;;19.03;7.67;;;11.50;99.90;;;;;;5084283;28;20526;-69
2023/10/05 06:50:08;;;;;;;16.40;7.23;;;11.60;99.90;;;;;;5091281;28;20508;-69
2023/10/05 06:52:39;;;;;;;22.17;8.27;;;11.60;99.90;;;;;;5091606;28;20557;-69
2023/10/05 06:55:07;;;;;;;21.13;7.90;;;11.70;99.90;;;;;;5092284;28;20457;-69
2023/10/05 06:57:35;;;;;;;18.80;8.10;;;11.80;99.90;;;;;;5086817;28;20538;-69
2023/10/05 07:00:16;;;;;;;20.50;8.30;;;11.80;99.90;;;;;;5088402;28;20809;-69
2023/10/05 07:02:43;;;;;;;21.57;7.90;;;11.80;99.90;;;;;;5085159;28;20581;-69
2023/10/05 07:05:11;;;;;;;22.40;9.20;;;11.80;99.90;;;;;;5097101;28;20917;-69
2023/10/05 07:07:40;;;;;;;16.90;7.03;;;11.70;99.90;;;;;;5088968;28;20869;-69
2023/10/05 07:10:09;;;;;;;21.43;7.57;;;11.70;99.90;;;;;;5085289;28;20447;-69
2023/10/05 07:12:38;;;;;;;17.77;7.90;;;11.70;99.90;;;;;;5086387;28;20557;-68
2023/10/05 07:15:08;;;;;;;14.90;7.80;;;11.60;99.90;;;;;;5086922;28;20454;-68
2023/10/05 07:17:34;;;;;;;41.23;8.47;;;11.70;99.90;;;;;;5088453;28;20461;-68
2023/10/05 07:20:02;;;;;;;14.40;7.00;;;11.80;99.90;;;;;;5090563;28;20489;-69
2023/10/05 07:22:29;;;;;;;15.27;6.87;;;11.90;99.90;;;;;;5089672;28;20462;-68
2023/10/05 07:24:57;;;;;;;16.30;7.23;;;12.00;99.90;;;;;;5090200;28;20446;-68
2023/10/05 07:27:23;;;;;;;12.37;6.40;;;12.20;99.90;;;;;;5089751;28;20512;-69
2023/10/05 07:29:50;;;;;;;19.83;7.07;;;12.40;99.90;;;;;;5090186;28;20472;-69
2023/10/05 07:32:18;;;;;;;11.80;6.93;;;12.50;99.90;;;;;;5089880;28;20825;-69
2023/10/05 07:34:44;;;;;;;17.77;7.60;;;12.80;99.90;;;;;;5089638;28;20807;-69
2023/10/05 07:37:11;;;;;;;18.13;6.87;;;13.00;99.90;;;;;;5090377;28;20451;-69
2023/10/05 07:39:40;;;;;;;16.57;7.93;;;13.30;99.90;;;;;;5088925;28;20494;-69
2023/10/05 07:42:08;;;;;;;15.60;6.80;;;13.40;99.90;;;;;;5088267;28;20450;-68
2023/10/05 07:44:36;;;;;;;18.13;7.60;;;13.50;99.90;;;;;;5090277;28;20869;-69
2023/10/05 07:47:02;;;;;;;17.80;7.90;;;13.50;99.90;;;;;;5089400;28;20454;-69
2023/10/05 07:49:30;;;;;;;18.50;7.90;;;13.60;99.90;;;;;;5088833;28;20451;-69
2023/10/05 07:51:59;;;;;;;27.77;8.13;;;13.50;99.90;;;;;;5088652;28;20447;-68
2023/10/05 07:54:27;;;;;;;30.07;8.20;;;13.50;99.90;;;;;;5088480;28;20628;-68
2023/10/05 07:56:54;;;;;;;25.03;8.43;;;13.50;99.90;;;;;;5089204;28;20479;-69
2023/10/05 07:59:21;;;;;;;19.83;7.37;;;13.70;99.90;;;;;;5089720;28;20466;-68
2023/10/05 08:01:49;;;;;;;15.70;7.00;;;13.60;99.90;;;;;;5089381;28;20590;-69
2023/10/05 08:04:15;;;;;;;17.30;7.27;;;13.70;99.90;;;;;;5088808;28;21075;-69
2023/10/05 08:06:45;;;;;;;20.50;7.57;;;13.70;99.90;;;;;;5089880;28;20468;-69
2023/10/05 08:09:15;;;;;;;19.07;7.70;;;13.70;99.90;;;;;;5087919;28;20827;-68
2023/10/05 08:11:42;;;;;;;14.60;7.30;;;13.70;99.90;;;;;;5089432;28;20490;-69
2023/10/05 08:14:08;;;;;;;19.57;8.30;;;13.80;99.90;;;;;;5089758;28;20465;-69
2023/10/05 08:16:35;;;;;;;23.80;8.47;;;14.00;99.90;;;;;;5089576;28;21002;-69
2023/10/05 08:19:02;;;;;;;20.10;7.07;;;14.10;99.90;;;;;;5089817;28;20447;-69
2023/10/05 08:21:29;;;;;;;16.53;7.37;;;14.20;99.90;;;;;;5088933;28;20494;-69
2023/10/05 08:23:57;;;;;;;20.27;7.77;;;14.30;99.90;;;;;;5089493;28;20466;-69
2023/10/05 08:26:28;;;;;;;11.17;7.17;;;14.50;99.90;;;;;;5089715;28;21050;-69
2023/10/05 08:28:55;;;;;;;17.33;7.03;;;14.50;99.90;;;;;;5088691;28;20446;-69
2023/10/05 08:31:24;;;;;;;19.93;7.67;;;14.60;99.90;;;;;;5089485;28;20443;-69
2023/10/05 08:33:52;;;;;;;21.47;6.30;;;14.70;99.90;;;;;;5089212;28;20873;-69
2023/10/05 08:36:19;;;;;;;18.63;7.20;;;14.90;99.90;;;;;;5085779;28;20530;-69
2023/10/05 08:38:48;;;;;;;14.20;7.20;;;15.10;99.90;;;;;;5087845;28;20455;-69
2023/10/05 08:41:31;;;;;;;15.43;6.80;;;15.30;99.90;;;;;;5087969;28;20453;-68
2023/10/05 08:43:58;;;;;;;17.43;7.17;;;15.40;99.90;;;;;;5087381;28;20456;-69
2023/10/05 08:46:26;;;;;;;7.40;3.67;;;15.60;99.90;;;;;;5086977;28;20806;-70
2023/10/05 08:48:55;;;;;;;14.40;5.00;;;15.60;99.90;;;;;;5087470;28;20711;-70
2023/10/05 08:51:24;;;;;;;12.43;3.73;;;15.70;99.90;;;;;;5087886;28;20443;-70
2023/10/05 08:53:57;;;;;;;10.50;3.03;;;15.80;99.90;;;;;;5087091;28;20988;-69
2023/10/05 08:56:25;;;;;;;6.00;3.07;;;16.00;99.90;;;;;;5087619;28;20417;-69
2023/10/05 08:58:53;;;;;;;5.43;3.10;;;16.10;99.90;;;;;;5088012;28;20422;-69
2023/10/05 09:01:25;;;;;;;6.70;3.13;;;16.20;99.90;;;;;;5088261;28;21275;-68
2023/10/05 09:04:01;;;;;;;6.77;2.50;;;16.30;99.90;;;;;;5086209;28;20951;-69
2023/10/05 09:06:28;;;;;;;11.20;3.13;;;16.40;99.90;;;;;;5085556;28;20545;-69
2023/10/05 09:09:07;;;;;;;14.20;3.20;;;16.40;99.90;;;;;;5087885;28;20465;-70
2023/10/05 09:11:35;;;;;;;5.43;2.90;;;16.70;99.90;;;;;;5087628;28;20407;-69
2023/10/05 09:14:13;;;;;;;14.53;3.53;;;16.70;99.90;;;;;;5086735;28;20441;-69
2023/10/05 09:16:43;;;;;;;6.30;3.30;;;16.70;99.90;;;;;;5088362;28;20470;-69
2023/10/05 09:19:15;;;;;;;8.23;3.00;;;17.00;99.90;;;;;;5088069;28;20425;-69
2023/10/05 09:21:46;;;;;;;8.03;3.00;;;17.40;99.90;;;;;;5087154;28;21011;-70
2023/10/05 09:24:19;;;;;;;6.10;3.10;;;17.40;99.90;;;;;;5086989;28;20471;-69
2023/10/05 09:26:52;;;;;;;6.00;2.80;;;17.40;99.90;;;;;;5087643;28;20808;-69
2023/10/05 09:29:21;;;;;;;4.90;2.80;;;17.60;99.90;;;;;;5087758;28;20465;-70
2023/10/05 09:31:50;;;;;;;11.13;3.50;;;17.60;99.90;;;;;;5088572;28;20447;-69
2023/10/05 09:34:20;;;;;;;8.80;2.90;;;17.60;99.90;;;;;;5086853;28;20853;-69
2023/10/05 09:36:47;;;;;;;9.87;3.93;;;17.80;99.90;;;;;;5086958;28;20433;-69
2023/10/05 09:39:16;;;;;;;11.40;3.40;;;17.90;99.90;;;;;;5085597;28;20451;-69
2023/10/05 09:41:49;;;;;;;9.53;3.10;;;18.30;99.90;;;;;;5087216;28;20491;-69
2023/10/05 09:44:19;;;;;;;6.90;3.00;;;18.50;99.90;;;;;;5086567;28;20963;-69
2023/10/05 09:46:49;;;;;;;5.83;2.80;;;18.60;99.90;;;;;;5088148;28;20486;-69
2023/10/05 09:49:17;;;;;;;14.60;3.70;;;18.70;99.90;;;;;;5087890;28;20461;-69
2023/10/05 09:51:48;;;;;;;10.23;3.37;;;18.80;99.90;;;;;;5085188;28;21021;-69
2023/10/05 09:54:16;;;;;;;8.07;3.00;;;18.90;99.90;;;;;;5086847;28;20469;-69
2023/10/05 09:56:43;;;;;;;11.57;3.60;;;18.60;99.90;;;;;;5088792;28;20422;-69
2023/10/05 09:59:15;;;;;;;7.93;3.40;;;18.50;99.90;;;;;;5087083;28;20940;-69
2023/10/05 10:01:47;;;;;;;6.70;3.43;;;18.30;99.90;;;;;;5085415;28;20497;-69
2023/10/05 10:04:34;;;;;;;16.20;3.43;;;18.20;99.90;;;;;;5083982;28;20462;-69
2023/10/05 10:07:05;;;;;;;11.97;3.20;;;18.10;99.90;;;;;;5085684;28;21667;-69
2023/10/05 10:09:32;;;;;;;16.60;3.83;;;17.90;99.90;;;;;;5087135;28;20479;-69
2023/10/05 10:11:59;;;;;;;13.63;3.23;;;17.80;99.90;;;;;;5086957;28;20553;-68
2023/10/05 10:14:26;;;;;;;10.30;3.13;;;17.60;99.90;;;;;;5084920;28;20923;-68
2023/10/05 10:17:00;;;;;;;12.50;3.70;;;17.50;99.90;;;;;;5086078;28;20462;-69
2023/10/05 10:19:28;;;;;;;6.20;2.80;;;17.30;99.90;;;;;;5086032;28;20437;-69
2023/10/05 10:22:00;;;;;;;14.73;3.43;;;17.10;99.90;;;;;;5086321;28;20482;-69
2023/10/05 10:24:29;;;;;;;9.77;3.40;;;17.10;99.90;;;;;;5085034;28;20421;-69
2023/10/05 10:27:07;;;;;;;16.73;4.00;;;17.20;99.90;;;;;;5086080;28;21003;-69
2023/10/05 10:29:42;;;;;;;8.73;3.00;;;17.10;99.90;;;;;;5086870;28;20792;-69
2023/10/05 10:32:18;;;;;;;11.90;4.00;;;17.20;99.90;;;;;;5085879;28;20413;-69
2023/10/05 10:34:50;;;;;;;10.23;3.43;;;17.10;99.90;;;;;;5084959;28;20496;-70
2023/10/05 10:37:36;;;;;;;15.17;3.30;;;17.10;99.90;;;;;;5085960;28;20447;-70
2023/10/05 10:40:12;;;;;;;7.73;3.23;;;17.10;99.90;;;;;;5085839;28;21357;-70
2023/10/05 10:42:53;;;;;;;8.60;3.50;;;17.10;99.90;;;;;;5085829;28;20506;-70
2023/10/05 10:45:23;;;;;;;11.03;3.60;;;17.00;99.90;;;;;;5086813;28;20413;-69
2023/10/05 10:47:53;;;;;;;16.60;3.60;;;16.70;99.90;;;;;;5087610;28;20925;-69
2023/10/05 10:50:28;;;;;;;9.57;3.47;;;16.30;99.90;;;;;;5086939;28;21002;-70
2023/10/05 10:52:56;;;;;;;8.70;3.50;;;16.30;99.90;;;;;;5088895;28;20461;-69
2023/10/05 10:55:31;;;;;;;10.23;3.43;;;16.20;99.90;;;;;;5090725;28;21013;-69
2023/10/05 10:57:59;;;;;;;10.13;3.33;;;16.20;99.90;;;;;;5090381;28;20452;-69
2023/10/05 11:00:54;;;;;;;7.40;3.50;;;16.30;99.90;;;;;;5090781;28;20875;-70
2023/10/05 11:03:24;;;;;;;10.00;3.30;;;16.20;99.90;;;;;;5089240;28;20490;-69
2023/10/05 11:05:52;;;;;;;11.33;3.40;;;16.30;99.90;;;;;;5090485;28;21017;-69
2023/10/05 11:08:20;;;;;;;6.87;3.20;;;16.40;99.90;;;;;;5089883;28;20454;-69
2023/10/05 11:10:58;;;;;;;6.90;2.73;;;16.50;99.90;;;;;;5090373;28;20855;-69
2023/10/05 11:13:26;;;;;;;8.90;3.17;;;16.60;99.90;;;;;;5090057;28;20453;-69
2023/10/05 11:15:57;;;;;;;6.50;2.53;;;16.50;99.90;;;;;;5090609;28;20447;-71
2023/10/05 11:59:10;;;;;;;4.43;3.00;;;16.70;99.90;;;;;;4384797;26;20865;-68
2023/10/05 12:01:40;;;;;;;11.23;2.93;;;16.70;99.90;;;;;;5046514;28;20604;-67
2023/10/05 12:04:08;;;;;;;9.07;3.63;;;16.70;99.90;;;;;;5071177;28;20436;-68
2023/10/05 12:06:37;;;;;;;9.43;3.13;;;16.50;99.90;;;;;;5074301;28;20977;-67
2023/10/05 12:09:07;;;;;;;6.20;2.90;;;16.40;99.90;;;;;;5071577;28;20501;-67
2023/10/05 12:11:33;;;;;;;7.37;3.40;;;16.40;99.90;;;;;;5071267;28;20443;-67
2023/10/05 12:14:00;;;;;;;8.43;2.77;;;16.40;99.90;;;;;;5073583;28;20444;-67
2023/10/05 12:16:32;;;;;;;9.47;3.07;;;16.40;99.90;;;;;;5072753;28;20475;-67
2023/10/05 12:19:13;;;;;;;6.10;3.03;;;16.50;99.90;;;;;;5068858;28;20946;-68
2023/10/05 12:21:40;;;;;;;9.30;2.93;;;16.60;99.90;;;;;;5071683;28;20586;-67
2023/10/05 12:24:08;;;;;;;7.77;3.10;;;16.70;99.90;;;;;;5072275;28;20482;-68
2023/10/05 12:26:34;;;;;;;8.57;3.30;;;16.80;99.90;;;;;;5071345;28;20502;-67
2023/10/05 12:29:01;;;;;;;6.43;2.83;;;16.80;99.90;;;;;;5071221;28;20525;-67
2023/10/05 12:31:29;;;;;;;11.13;2.63;;;16.80;99.90;;;;;;5069233;28;20454;-67
2023/10/05 12:33:56;;;;;;;13.90;3.17;;;16.90;99.90;;;;;;5070950;28;20457;-68
2023/10/05 12:36:23;;;;;;;8.83;3.37;;;17.00;99.90;;;;;;5071550;28;20442;-68
2023/10/05 12:38:50;;;;;;;18.23;3.70;;;17.10;99.90;;;;;;5071207;28;20527;-67
2023/10/05 12:41:17;;;;;;;13.53;3.30;;;17.10;99.90;;;;;;5068690;28;20574;-68
2023/10/05 12:43:44;;;;;;;8.17;3.27;;;17.00;99.90;;;;;;5070512;28;20509;-68
2023/10/05 12:46:11;;;;;;;7.60;3.47;;;16.90;99.90;;;;;;5070907;28;20471;-68
2023/10/05 12:48:40;;;;;;;5.60;3.10;;;16.90;99.90;;;;;;5070500;28;20994;-68
2023/10/05 12:51:07;;;;;;;11.90;3.17;;;17.00;99.90;;;;;;5070550;28;20513;-70
2023/10/05 12:53:36;;;;;;;9.00;3.43;;;17.00;99.90;;;;;;5070163;28;20864;-68
2023/10/05 12:56:03;;;;;;;7.37;3.00;;;17.00;99.90;;;;;;5070584;28;20450;-68
2023/10/05 12:58:32;;;;;;;7.93;3.10;;;16.90;99.90;;;;;;5074408;28;20423;-68
2023/10/05 13:01:07;;;;;;;12.87;3.57;;;16.90;99.90;;;;;;5068379;28;20454;-68
2023/10/05 13:03:35;;;;;;;11.00;3.30;;;16.80;99.90;;;;;;5065503;28;20466;-68
2023/10/05 13:06:10;;;;;;;7.60;3.20;;;16.80;99.90;;;;;;5070774;28;20899;-68
2023/10/05 13:08:37;;;;;;;5.73;3.03;;;16.90;99.90;;;;;;5069612;28;20479;-68
2023/10/05 13:11:04;;;;;;;12.80;3.47;;;16.90;99.90;;;;;;5075767;28;20476;-68
2023/10/05 13:13:31;;;;;;;8.87;3.27;;;16.90;99.90;;;;;;5071235;28;20534;-68
2023/10/05 13:15:57;;;;;;;9.10;3.07;;;17.00;99.90;;;;;;5066722;28;20541;-68
2023/10/05 13:18:25;;;;;;;7.70;2.90;;;17.10;99.90;;;;;;5065632;28;20545;-68
2023/10/05 13:20:54;;;;;;;5.70;3.00;;;17.30;99.90;;;;;;5066956;28;20490;-68
2023/10/05 13:23:23;;;;;;;6.57;3.07;;;17.40;99.90;;;;;;5065519;28;20502;-68
2023/10/05 13:25:50;;;;;;;5.00;3.17;;;17.50;99.90;;;;;;5070629;28;20912;-68
2023/10/05 13:28:17;;;;;;;8.90;3.70;;;17.60;99.90;;;;;;5070343;28;20423;-68
2023/10/05 13:30:47;;;;;;;5.23;2.40;;;17.50;99.90;;;;;;5069724;28;20451;-67
2023/10/05 13:33:17;;;;;;;7.47;2.80;;;17.60;99.90;;;;;;5070485;28;20456;-68